Time;durP1;ratioP1;P1;durP2;ratioP2;P2;SDS_P1;SDS_P2;PMS_P1;PMS_P2;Temp;Humidity;BMP_temperature;BMP_pressure;BME280_temperature;BME280_humidity;BME280_pressure;Samples;Min_cycle;Max_cycle;Signal;HPM_P1;HPM_P2
2023/01/09 00:00:33;;;;;;;;;;;;;;;;;;4990399;28;1258548;-71
2023/01/09 00:03:26;;;;;;;;;;;;;;;;;;5036369;28;7155;-71
2023/01/09 00:05:52;;;;;;;;;;;;;;;;;;5016849;28;7512;-71
2023/01/09 00:11:20;;;;;;;;;;;;;;;;;;5023198;28;6761;-71
2023/01/09 00:20:20;;;;;;;;;;;;;;;;;;5016315;28;6992;-70
2023/01/09 00:22:45;;;;;;;;;;;;;;;;;;5016291;28;7181;-70
2023/01/09 00:28:14;;;;;;;;;;;;;;;;;;5016486;28;6942;-70
2023/01/09 00:33:59;;;;;;;;;;;;;;;;;;5016222;28;6743;-70
2023/01/09 00:36:35;;;;;;;;;;;;;;;;;;5016183;28;6921;-70
2023/01/09 00:39:00;;;;;;;;;;;;;;;;;;5016737;28;7401;-71
2023/01/09 00:41:47;;;;;;;;;;;;;;;;;;5016352;28;6793;-70
2023/01/09 00:44:16;;;;;;;;;;;;;;;;;;5015766;28;7376;-70
2023/01/09 00:55:50;;;;;;;;;;;;;;;;;;5016481;28;6677;-70
2023/01/09 00:58:39;;;;;;;;;;;;;;;;;;5015446;28;7044;-71
2023/01/09 01:01:05;;;;;;;;;;;;;;;;;;5015803;28;7360;-70
2023/01/09 01:03:37;;;;;;;;;;;;;;;;;;5015660;28;6895;-70
2023/01/09 01:09:05;;;;;;;;;;;;;;;;;;5015476;28;6705;-70
2023/01/09 01:11:40;;;;;;;;;;;;;;;;;;5015548;28;7346;-70
2023/01/09 01:14:06;;;;;;;;;;;;;;;;;;5017419;28;7053;-71
2023/01/09 01:16:31;;;;;;;;;;;;;;;;;;5035317;28;7145;-71
2023/01/09 01:18:59;;;;;;;;;;;;;;;;;;5035287;28;7050;-71
2023/01/09 01:21:25;;;;;;;;;;;;;;;;;;5035129;28;7142;-70
2023/01/09 01:26:53;;;;;;;;;;;;;;;;;;5034885;28;6686;-71
2023/01/09 01:29:31;;;;;;;;;;;;;;;;;;5035132;28;7125;-71
2023/01/09 01:31:56;;;;;;;;;;;;;;;;;;5034668;28;7274;-71
2023/01/09 01:34:22;;;;;;;;;;;;;;;;;;5034966;28;6909;-71
2023/01/09 01:36:47;;;;;;;;;;;;;;;;;;5017503;28;7613;-71
2023/01/09 01:42:18;;;;;;;;;;;;;;;;;;5034642;28;7077;-71
2023/01/09 01:51:03;;;;;;;;;;;;;;;;;;5034643;28;6675;-70
2023/01/09 01:53:32;;;;;;;;;;;;;;;;;;5034464;28;7355;-70
2023/01/09 01:56:16;;;;;;;;;;;;;;;;;;5034720;28;7353;-70
2023/01/09 01:58:45;;;;;;;;;;;;;;;;;;5034623;28;7452;-70
2023/01/09 02:01:10;;;;;;;;;;;;;;;;;;4997425;28;8454;-70
2023/01/09 02:03:38;;;;;;;;;;;;;;;;;;5014834;28;7239;-70
2023/01/09 02:09:24;;;;;;;;;;;;;;;;;;5014972;28;6926;-70
2023/01/09 02:11:55;;;;;;;;;;;;;;;;;;5014769;28;7149;-70
2023/01/09 02:14:23;;;;;;;;;;;;;;;;;;5014766;28;7207;-71
2023/01/09 02:17:03;;;;;;;;;;;;;;;;;;5014744;28;7431;-71
2023/01/09 02:22:55;;;;;;;;;;;;;;;;;;4954278;29;6813;-70
2023/01/09 02:25:50;;;;;;;;;;;;;;;;;;4954434;29;7151;-70
2023/01/09 02:28:21;;;;;;;;;;;;;;;;;;4954527;29;7129;-70
2023/01/09 02:33:53;;;;;;;;;;;;;;;;;;4954702;29;6940;-70
2023/01/09 02:36:18;;;;;;;;;;;;;;;;;;4954266;29;7326;-70
2023/01/09 02:39:05;;;;;;;;;;;;;;;;;;4954171;28;7105;-70
2023/01/09 02:41:36;;;;;;;;;;;;;;;;;;4958439;28;7203;-70
2023/01/09 02:44:13;;;;;;;;;;;;;;;;;;4957893;28;7732;-70
2023/01/09 02:49:46;;;;;;;;;;;;;;;;;;4958067;28;6982;-70
2023/01/09 02:55:26;;;;;;;;;;;;;;;;;;4919797;29;6950;-70
2023/01/09 03:13:38;;;;;;;;;;;;;;;;;;4938718;29;6957;-70
2023/01/09 03:16:07;;;;;;;;;;;;;;;;;;4938420;29;6960;-70
2023/01/09 03:21:34;;;;;;;;;;;;;;;;;;4938153;29;7009;-70
2023/01/09 03:24:14;;;;;;;;;;;;;;;;;;4937898;29;7310;-70
2023/01/09 03:26:40;;;;;;;;;;;;;;;;;;4938233;29;7102;-70
2023/01/09 03:29:06;;;;;;;;;;;;;;;;;;4938049;29;7042;-70
2023/01/09 03:31:50;;;;;;;;;;;;;;;;;;4955316;28;7392;-70
2023/01/09 03:34:15;;;;;;;;;;;;;;;;;;4997648;28;7355;-70
2023/01/09 03:36:41;;;;;;;;;;;;;;;;;;4997688;28;7158;-70
2023/01/09 03:39:06;;;;;;;;;;;;;;;;;;4997781;28;7150;-70
2023/01/09 03:41:32;;;;;;;;;;;;;;;;;;4997564;28;6976;-70
2023/01/09 03:44:15;;;;;;;;;;;;;;;;;;4997622;28;7122;-70
2023/01/09 03:46:40;;;;;;;;;;;;;;;;;;4997553;28;7092;-70
2023/01/09 03:49:06;;;;;;;;;;;;;;;;;;4997346;28;7102;-70
2023/01/09 03:51:54;;;;;;;;;;;;;;;;;;4997416;28;7130;-70
2023/01/09 03:54:19;;;;;;;;;;;;;;;;;;4997486;28;7134;-70
2023/01/09 03:56:50;;;;;;;;;;;;;;;;;;4979707;28;8477;-70
2023/01/09 04:02:18;;;;;;;;;;;;;;;;;;5016894;28;7494;-70
2023/01/09 04:04:44;;;;;;;;;;;;;;;;;;5016614;28;7807;-70
2023/01/09 04:07:10;;;;;;;;;;;;;;;;;;5033208;28;8454;-70
2023/01/09 04:09:35;;;;;;;;;;;;;;;;;;5016865;28;7197;-70
2023/01/09 04:12:01;;;;;;;;;;;;;;;;;;5016972;28;7183;-70
2023/01/09 04:20:55;;;;;;;;;;;;;;;;;;5016505;28;6677;-70
2023/01/09 04:23:21;;;;;;;;;;;;;;;;;;5016588;28;7345;-70
2023/01/09 04:25:47;;;;;;;;;;;;;;;;;;5016504;28;7371;-70
2023/01/09 04:31:16;;;;;;;;;;;;;;;;;;5016106;28;6991;-70
2023/01/09 04:33:48;;;;;;;;;;;;;;;;;;5016417;28;7171;-70
2023/01/09 04:36:13;;;;;;;;;;;;;;;;;;5014320;28;7459;-70
2023/01/09 04:38:52;;;;;;;;;;;;;;;;;;5015500;28;7107;-70
2023/01/09 04:41:47;;;;;;;;;;;;;;;;;;5016099;28;7208;-70
2023/01/09 04:44:03;;;;;;;;;;;;;;;;;;5015775;28;7151;-70
2023/01/09 04:46:29;;;;;;;;;;;;;;;;;;5017066;28;7295;-70
2023/01/09 04:52:06;;;;;;;;;;;;;;;;;;5015652;28;7544;-70
2023/01/09 04:57:36;;;;;;;;;;;;;;;;;;5015702;28;6948;-70
2023/01/09 05:00:02;;;;;;;;;;;;;;;;;;5009956;28;7069;-70
2023/01/09 05:02:45;;;;;;;;;;;;;;;;;;4995626;28;6924;-70
2023/01/09 05:05:12;;;;;;;;;;;;;;;;;;5011020;28;7203;-70
2023/01/09 05:07:38;;;;;;;;;;;;;;;;;;4996665;28;7268;-67
2023/01/09 05:13:07;;;;;;;;;;;;;;;;;;4995719;28;6989;-70
2023/01/09 05:15:58;;;;;;;;;;;;;;;;;;4995753;28;7032;-70
2023/01/09 05:18:24;;;;;;;;;;;;;;;;;;4995905;28;6986;-70
2023/01/09 05:24:16;;;;;;;;;;;;;;;;;;4995501;28;6754;-70
2023/01/09 05:26:41;;;;;;;;;;;;;;;;;;4995546;28;7147;-70
2023/01/09 05:29:07;;;;;;;;;;;;;;;;;;4995593;28;7137;-70
2023/01/09 05:31:32;;;;;;;;;;;;;;;;;;4978723;28;7152;-70
2023/01/09 05:33:59;;;;;;;;;;;;;;;;;;4995628;28;7225;-70
2023/01/09 05:42:31;;;;;;;;;;;;;;;;;;4995490;28;6684;-70
2023/01/09 05:44:56;;;;;;;;;;;;;;;;;;4995165;28;7132;-70
2023/01/09 05:47:22;;;;;;;;;;;;;;;;;;4995504;28;6928;-70
2023/01/09 05:49:59;;;;;;;;;;;;;;;;;;4995477;28;7115;-70
2023/01/09 05:52:25;;;;;;;;;;;;;;;;;;4995385;28;7159;-70
2023/01/09 05:55:24;;;;;;;;;;;;;;;;;;4995404;28;7019;-70
2023/01/09 06:01:11;;;;;;;;;;;;;;;;;;4998829;28;6688;-70
2023/01/09 06:03:37;;;;;;;;;;;;;;;;;;4995233;28;7047;-70
2023/01/09 06:06:03;;;;;;;;;;;;;;;;;;4995000;28;7213;-70
2023/01/09 06:08:52;;;;;;;;;;;;;;;;;;4996111;28;7504;-70
2023/01/09 06:11:17;;;;;;;;;;;;;;;;;;5010368;28;7134;-70
2023/01/09 06:13:46;;;;;;;;;;;;;;;;;;5014801;28;7400;-70
2023/01/09 06:19:25;;;;;;;;;;;;;;;;;;4998982;28;7013;-70
2023/01/09 06:21:52;;;;;;;;;;;;;;;;;;4999145;28;7180;-70
2023/01/09 06:24:49;;;;;;;;;;;;;;;;;;4999894;28;7249;-70
2023/01/09 06:27:15;;;;;;;;;;;;;;;;;;4998884;28;6962;-70
2023/01/09 06:29:54;;;;;;;;;;;;;;;;;;4999886;28;7078;-70
2023/01/09 06:32:20;;;;;;;;;;;;;;;;;;4998966;28;6962;-70
2023/01/09 06:34:45;;;;;;;;;;;;;;;;;;4999011;28;7207;-70
2023/01/09 06:37:34;;;;;;;;;;;;;;;;;;4999708;28;7204;-70
2023/01/09 06:40:00;;;;;;;;;;;;;;;;;;4999629;28;7179;-70
2023/01/09 06:42:25;;;;;;;;;;;;;;;;;;4998825;28;7507;-70
2023/01/09 06:45:01;;;;;;;;;;;;;;;;;;4994687;28;6875;-70
2023/01/09 06:47:26;;;;;;;;;;;;;;;;;;4979029;28;7066;-70
2023/01/09 06:49:52;;;;;;;;;;;;;;;;;;4979249;28;7144;-70
2023/01/09 06:52:29;;;;;;;;;;;;;;;;;;4979096;28;7244;-70
2023/01/09 06:54:55;;;;;;;;;;;;;;;;;;4980189;28;7121;-70
2023/01/09 07:00:26;;;;;;;;;;;;;;;;;;4982101;28;6708;-70
2023/01/09 07:02:51;;;;;;;;;;;;;;;;;;4996156;28;7028;-70
2023/01/09 07:08:37;;;;;;;;;;;;;;;;;;4997942;28;6925;-70
2023/01/09 07:11:03;;;;;;;;;;;;;;;;;;4998268;28;7396;-70
2023/01/09 07:13:37;;;;;;;;;;;;;;;;;;4998143;28;7293;-70
2023/01/09 07:16:04;;;;;;;;;;;;;;;;;;4998135;28;8567;-70
2023/01/09 07:18:30;;;;;;;;;;;;;;;;;;4998186;28;7213;-70
2023/01/09 07:21:15;;;;;;;;;;;;;;;;;;4997944;28;7255;-70
2023/01/09 07:23:41;;;;;;;;;;;;;;;;;;5016071;28;8108;-70
2023/01/09 07:32:12;;;;;;;;;;;;;;;;;;5017037;28;6919;-70
2023/01/09 07:37:53;;;;;;;;;;;;;;;;;;5017127;28;6700;-70
2023/01/09 07:40:18;;;;;;;;;;;;;;;;;;5017241;28;7218;-70
2023/01/09 07:43:17;;;;;;;;;;;;;;;;;;5016728;28;6815;-70
2023/01/09 07:45:44;;;;;;;;;;;;;;;;;;5017103;28;7209;-70
2023/01/09 07:54:16;;;;;;;;;;;;;;;;;;5016889;28;6746;-71
2023/01/09 07:59:44;;;;;;;;;;;;;;;;;;5016934;28;6689;-71
2023/01/09 08:02:09;;;;;;;;;;;;;;;;;;5004542;28;6996;-71
2023/01/09 08:07:40;;;;;;;;;;;;;;;;;;4996991;28;6687;-71
2023/01/09 08:10:06;;;;;;;;;;;;;;;;;;4997166;28;7143;-71
2023/01/09 08:12:48;;;;;;;;;;;;;;;;;;4997078;28;7263;-72
2023/01/09 08:15:14;;;;;;;;;;;;;;;;;;4997713;28;7170;-72
2023/01/09 08:23:51;;;;;;;;;;;;;;;;;;4996946;28;6936;-69
2023/01/09 08:26:18;;;;;;;;;;;;;;;;;;4997031;28;7107;-69
2023/01/09 08:28:44;;;;;;;;;;;;;;;;;;4996642;28;7292;-69
2023/01/09 08:31:10;;;;;;;;;;;;;;;;;;4996718;28;7136;-69
2023/01/09 08:33:58;;;;;;;;;;;;;;;;;;4996624;28;7394;-69
2023/01/09 08:36:23;;;;;;;;;;;;;;;;;;4996141;28;7865;-69
2023/01/09 08:38:49;;;;;;;;;;;;;;;;;;4995984;28;7232;-70
2023/01/09 08:47:07;;;;;;;;;;;;;;;;;;4994066;28;6691;-70
2023/01/09 08:49:46;;;;;;;;;;;;;;;;;;4979174;28;7448;-70
2023/01/09 08:52:12;;;;;;;;;;;;;;;;;;4996778;28;7348;-70
2023/01/09 08:54:55;;;;;;;;;;;;;;;;;;4996297;28;7218;-70
2023/01/09 08:57:20;;;;;;;;;;;;;;;;;;4996266;28;7031;-70
2023/01/09 08:59:46;;;;;;;;;;;;;;;;;;4996344;28;7049;-69
2023/01/09 09:02:11;;;;;;;;;;;;;;;;;;4997103;28;7439;-69
2023/01/09 09:04:52;;;;;;;;;;;;;;;;;;4996100;28;6964;-69
2023/01/09 09:07:25;;;;;;;;;;;;;;;;;;4996103;28;7146;-69
2023/01/09 09:12:55;;;;;;;;;;;;;;;;;;4995744;28;7134;-69
2023/01/09 09:15:25;;;;;;;;;;;;;;;;;;4995902;28;7265;-71
2023/01/09 09:17:54;;;;;;;;;;;;;;;;;;4995727;28;7266;-71
2023/01/09 09:20:21;;;;;;;;;;;;;;;;;;4996581;28;7200;-71
2023/01/09 09:22:47;;;;;;;;;;;;;;;;;;4980128;28;7043;-72
2023/01/09 09:25:14;;;;;;;;;;;;;;;;;;4976222;28;7398;-72
2023/01/09 09:30:42;;;;;;;;;;;;;;;;;;4976132;28;6914;-72
2023/01/09 09:36:11;;;;;;;;;;;;;;;;;;4976070;28;6688;-72
2023/01/09 09:39:11;;;;;;;;;;;;;;;;;;4975897;28;6963;-72
2023/01/09 09:58:11;;;;;;;;;;;;;;;;;;5002918;28;7292;-72
2023/01/09 10:00:37;;;;;;;;;;;;;;;;;;5034539;28;7368;-71
2023/01/09 10:06:15;;;;;;;;;;;;;;;;;;5034305;28;6935;-70
2023/01/09 10:08:54;;;;;;;;;;;;;;;;;;5034796;28;7389;-70
2023/01/09 10:11:41;;;;;;;;;;;;;;;;;;5035208;28;7474;-70
2023/01/09 10:14:10;;;;;;;;;;;;;;;;;;5035030;28;7223;-70
2023/01/09 10:16:47;;;;;;;;;;;;;;;;;;5034513;28;7441;-70
2023/01/09 10:28:43;;;;;;;;;;;;;;;;;;4951252;29;6757;-70
2023/01/09 10:40:34;;;;;;;;;;;;;;;;;;4954861;29;6713;-70
2023/01/09 10:43:31;;;;;;;;;;;;;;;;;;4954497;29;7172;-70
2023/01/09 10:46:02;;;;;;;;;;;;;;;;;;4954574;29;7672;-70
2023/01/09 10:48:59;;;;;;;;;;;;;;;;;;4954176;29;7090;-70
2023/01/09 10:54:22;;;;;;;;;;;;;;;;;;4954882;29;6804;-70
2023/01/09 10:56:50;;;;;;;;;;;;;;;;;;4954307;29;7345;-72
2023/01/09 10:59:16;;;;;;;;;;;;;;;;;;4994174;28;7130;-70
2023/01/09 11:04:45;;;;;;;;;;;;;;;;;;5037726;28;6700;-70
2023/01/09 11:10:04;;;;;;;;;;;;;;;;;;5037399;28;6971;-70
2023/01/09 11:12:34;;;;;;;;;;;;;;;;;;5037597;28;7189;-70
2023/01/09 11:15:15;;;;;;;;;;;;;;;;;;5037871;28;7541;-70
2023/01/09 11:17:55;;;;;;;;;;;;;;;;;;5037457;28;7118;-70
2023/01/09 11:20:21;;;;;;;;;;;;;;;;;;5036804;28;7172;-71
2023/01/09 11:23:09;;;;;;;;;;;;;;;;;;5025252;28;7127;-71
2023/01/09 11:25:34;;;;;;;;;;;;;;;;;;5042938;28;7274;-71
2023/01/09 11:28:00;;;;;;;;;;;;;;;;;;5037151;28;7105;-70
2023/01/09 11:30:44;;;;;;;;;;;;;;;;;;5037541;28;7089;-70
2023/01/09 11:36:26;;;;;;;;;;;;;;;;;;5037097;28;6795;-70
2023/01/09 11:38:53;;;;;;;;;;;;;;;;;;5034011;28;7218;-70
2023/01/09 11:44:41;;;;;;;;;;;;;;;;;;5040040;28;6927;-70
2023/01/09 11:47:36;;;;;;;;;;;;;;;;;;5056697;28;7035;-70
2023/01/09 11:50:19;;;;;;;;;;;;;;;;;;5056808;28;7337;-70
2023/01/09 11:55:54;;;;;;;;;;;;;;;;;;5057275;28;6964;-70
2023/01/09 11:58:20;;;;;;;;;;;;;;;;;;5055914;28;7088;-70
2023/01/09 12:03:47;;;;;;;;;;;;;;;;;;5056708;28;6930;-70
2023/01/09 12:06:21;;;;;;;;;;;;;;;;;;5056456;28;6993;-70
2023/01/09 12:09:07;;;;;;;;;;;;;;;;;;5056500;28;7348;-70
2023/01/09 12:11:32;;;;;;;;;;;;;;;;;;5035850;28;7176;-70
2023/01/09 12:14:10;;;;;;;;;;;;;;;;;;5031412;28;7403;-70
2023/01/09 12:16:54;;;;;;;;;;;;;;;;;;5016674;28;7223;-70
2023/01/09 12:19:23;;;;;;;;;;;;;;;;;;5016352;28;7395;-70
2023/01/09 12:21:54;;;;;;;;;;;;;;;;;;5016656;28;7124;-69
2023/01/09 12:24:48;;;;;;;;;;;;;;;;;;5016963;28;7167;-70
2023/01/09 12:27:26;;;;;;;;;;;;;;;;;;5019578;28;7369;-69
2023/01/09 12:32:55;;;;;;;;;;;;;;;;;;5035951;28;6930;-69
2023/01/09 12:38:26;;;;;;;;;;;;;;;;;;5036235;28;6683;-69
2023/01/09 12:40:51;;;;;;;;;;;;;;;;;;5036063;28;7187;-69
2023/01/09 12:46:51;;;;;;;;;;;;;;;;;;5036353;28;6968;-69
2023/01/09 12:55:33;;;;;;;;;;;;;;;;;;5033375;28;6714;-70
2023/01/09 13:01:02;;;;;;;;;;;;;;;;;;5015810;28;6960;-70
2023/01/09 13:03:36;;;;;;;;;;;;;;;;;;5015434;28;7230;-70
2023/01/09 13:06:22;;;;;;;;;;;;;;;;;;5015827;28;7108;-70
2023/01/09 13:14:46;;;;;;;;;;;;;;;;;;5038815;28;6686;-70
2023/01/09 13:17:33;;;;;;;;;;;;;;;;;;5032664;28;7372;-70
2023/01/09 13:22:51;;;;;;;;;;;;;;;;;;5015970;28;7045;-70
2023/01/09 13:25:40;;;;;;;;;;;;;;;;;;5015218;28;6982;-70
2023/01/09 13:31:23;;;;;;;;;;;;;;;;;;5015337;28;6994;-70
2023/01/09 13:33:53;;;;;;;;;;;;;;;;;;5015277;28;7288;-70
2023/01/09 13:36:42;;;;;;;;;;;;;;;;;;5015599;28;7137;-70
2023/01/09 13:39:34;;;;;;;;;;;;;;;;;;5015085;28;7149;-70
2023/01/09 13:45:20;;;;;;;;;;;;;;;;;;5014926;28;6911;-70
2023/01/09 13:51:18;;;;;;;;;;;;;;;;;;4993323;28;6769;-70
2023/01/09 13:53:44;;;;;;;;;;;;;;;;;;5000810;28;7073;-71
2023/01/09 14:02:33;;;;;;;;;;;;;;;;;;4993453;28;6998;-70
2023/01/09 14:11:05;;;;;;;;;;;;;;;;;;4993605;28;6982;-70
2023/01/09 14:13:40;;;;;;;;;;;;;;;;;;4993227;28;7041;-70
2023/01/09 14:19:31;;;;;;;;;;;;;;;;;;5010590;28;6703;-70
2023/01/09 14:21:57;;;;;;;;;;;;;;;;;;5012889;28;7373;-70
2023/01/09 14:24:42;;;;;;;;;;;;;;;;;;5032208;28;6953;-70
2023/01/09 14:30:16;;;;;;;;;;;;;;;;;;5033994;28;6780;-69
2023/01/09 14:33:08;;;;;;;;;;;;;;;;;;5034430;28;7000;-69
2023/01/09 14:35:40;;;;;;;;;;;;;;;;;;5035448;28;6947;-69
2023/01/09 14:38:39;;;;;;;;;;;;;;;;;;5038040;28;7165;-69
2023/01/09 14:44:05;;;;;;;;;;;;;;;;;;5037764;28;6804;-69
2023/01/09 14:49:33;;;;;;;;;;;;;;;;;;5030621;28;7025;-69
2023/01/09 14:52:08;;;;;;;;;;;;;;;;;;5036735;28;7161;-69
2023/01/09 14:54:56;;;;;;;;;;;;;;;;;;5038162;28;7144;-69
2023/01/09 14:57:29;;;;;;;;;;;;;;;;;;5034730;28;7241;-69
2023/01/09 14:59:56;;;;;;;;;;;;;;;;;;5023564;28;7403;-70
2023/01/09 15:02:51;;;;;;;;;;;;;;;;;;5037366;28;7437;-69
2023/01/09 15:05:21;;;;;;;;;;;;;;;;;;5038068;28;7098;-68
2023/01/09 15:07:55;;;;;;;;;;;;;;;;;;5037264;28;7319;-69
2023/01/09 15:16:36;;;;;;;;;;;;;;;;;;5037400;28;6923;-67
2023/01/09 15:19:31;;;;;;;;;;;;;;;;;;5037581;28;6971;-67
2023/01/09 15:21:58;;;;;;;;;;;;;;;;;;5017613;28;7087;-67
2023/01/09 15:24:28;;;;;;;;;;;;;;;;;;5017900;28;7154;-67
2023/01/09 15:26:58;;;;;;;;;;;;;;;;;;5018393;28;7170;-66
2023/01/09 15:29:25;;;;;;;;;;;;;;;;;;5017616;28;7244;-67
2023/01/09 15:32:10;;;;;;;;;;;;;;;;;;5017952;28;8429;-66
2023/01/09 15:34:36;;;;;;;;;;;;;;;;;;5027688;28;7039;-67
2023/01/09 15:37:02;;;;;;;;;;;;;;;;;;5037199;28;7395;-67
2023/01/09 15:39:36;;;;;;;;;;;;;;;;;;5037352;28;7083;-67
2023/01/09 15:44:57;;;;;;;;;;;;;;;;;;5036920;28;6795;-67
2023/01/09 15:47:26;;;;;;;;;;;;;;;;;;5036298;28;6958;-67
2023/01/09 15:50:11;;;;;;;;;;;;;;;;;;5037870;28;7049;-67
2023/01/09 15:52:37;;;;;;;;;;;;;;;;;;5036815;28;7152;-67
2023/01/09 15:58:00;;;;;;;;;;;;;;;;;;5037504;28;6996;-67
2023/01/09 16:03:37;;;;;;;;;;;;;;;;;;5018596;28;7028;-67
2023/01/09 16:06:08;;;;;;;;;;;;;;;;;;5036241;28;7174;-67
2023/01/09 16:08:37;;;;;;;;;;;;;;;;;;5037408;28;7025;-69
2023/01/09 16:11:06;;;;;;;;;;;;;;;;;;5036559;28;6944;-67
2023/01/09 16:13:33;;;;;;;;;;;;;;;;;;5036260;28;6960;-70
2023/01/09 16:16:36;;;;;;;;;;;;;;;;;;5036368;28;7610;-69
2023/01/09 16:19:02;;;;;;;;;;;;;;;;;;5036247;28;7184;-69
2023/01/09 16:21:51;;;;;;;;;;;;;;;;;;5036867;28;7177;-69
2023/01/09 16:27:49;;;;;;;;;;;;;;;;;;5036081;28;6680;-70
2023/01/09 16:30:26;;;;;;;;;;;;;;;;;;5036308;28;7340;-69
2023/01/09 16:32:52;;;;;;;;;;;;;;;;;;5035695;28;7215;-69
2023/01/09 16:38:21;;;;;;;;;;;;;;;;;;5036147;28;6682;-70
2023/01/09 16:43:50;;;;;;;;;;;;;;;;;;5035644;28;6734;-69
2023/01/09 16:46:25;;;;;;;;;;;;;;;;;;5035747;28;7381;-69
2023/01/09 16:48:50;;;;;;;;;;;;;;;;;;5035978;28;7134;-69
2023/01/09 16:51:18;;;;;;;;;;;;;;;;;;5035339;28;7002;-70
2023/01/09 16:53:44;;;;;;;;;;;;;;;;;;5035832;28;7047;-70
2023/01/09 16:56:16;;;;;;;;;;;;;;;;;;5035703;28;7161;-70
2023/01/09 17:01:53;;;;;;;;;;;;;;;;;;5015658;28;6942;-66
2023/01/09 17:04:19;;;;;;;;;;;;;;;;;;5015777;28;7537;-66
2023/01/09 17:06:46;;;;;;;;;;;;;;;;;;5015693;28;7386;-66
2023/01/09 17:09:14;;;;;;;;;;;;;;;;;;5016865;28;7165;-66
2023/01/09 17:11:40;;;;;;;;;;;;;;;;;;5015712;28;7126;-66
2023/01/09 17:14:24;;;;;;;;;;;;;;;;;;5015648;28;7072;-67
2023/01/09 17:16:50;;;;;;;;;;;;;;;;;;5016385;28;7141;-66
2023/01/09 17:19:17;;;;;;;;;;;;;;;;;;5015072;28;7795;-66
2023/01/09 17:22:04;;;;;;;;;;;;;;;;;;5015529;28;6982;-67
2023/01/09 17:30:20;;;;;;;;;;;;;;;;;;5015706;28;6925;-66
2023/01/09 17:39:18;;;;;;;;;;;;;;;;;;5015019;28;6680;-66
2023/01/09 17:41:44;;;;;;;;;;;;;;;;;;5015812;28;8099;-66
2023/01/09 17:44:11;;;;;;;;;;;;;;;;;;5014057;28;7147;-66
2023/01/09 17:46:38;;;;;;;;;;;;;;;;;;5014493;28;7024;-66
2023/01/09 17:49:05;;;;;;;;;;;;;;;;;;5015884;28;7108;-66
2023/01/09 17:51:31;;;;;;;;;;;;;;;;;;5014970;28;7153;-66
2023/01/09 17:53:56;;;;;;;;;;;;;;;;;;5014920;28;7035;-67
2023/01/09 17:56:40;;;;;;;;;;;;;;;;;;5015346;28;7132;-66
2023/01/09 17:59:20;;;;;;;;;;;;;;;;;;5015672;28;7392;-67
2023/01/09 18:01:45;;;;;;;;;;;;;;;;;;5016500;28;8711;-66
2023/01/09 18:04:11;;;;;;;;;;;;;;;;;;5034803;28;7163;-67
2023/01/09 18:06:36;;;;;;;;;;;;;;;;;;5034621;28;7154;-66
2023/01/09 18:09:03;;;;;;;;;;;;;;;;;;5034759;28;7394;-66
2023/01/09 18:11:28;;;;;;;;;;;;;;;;;;5038726;28;7359;-66
2023/01/09 18:13:55;;;;;;;;;;;;;;;;;;5039243;28;7154;-67
2023/01/09 18:16:22;;;;;;;;;;;;;;;;;;5038747;28;7198;-67
2023/01/09 18:19:17;;;;;;;;;;;;;;;;;;5039102;28;7577;-66
2023/01/09 18:21:42;;;;;;;;;;;;;;;;;;5038384;28;6908;-66
2023/01/09 18:24:08;;;;;;;;;;;;;;;;;;5038254;28;6957;-66
2023/01/09 18:27:00;;;;;;;;;;;;;;;;;;5038517;28;7292;-66
2023/01/09 18:29:26;;;;;;;;;;;;;;;;;;5038872;28;7275;-66
2023/01/09 18:31:51;;;;;;;;;;;;;;;;;;5020633;28;8423;-66
2023/01/09 18:34:17;;;;;;;;;;;;;;;;;;5038647;28;7105;-66
2023/01/09 18:36:42;;;;;;;;;;;;;;;;;;5039424;28;7208;-66
2023/01/09 18:39:09;;;;;;;;;;;;;;;;;;5038995;28;6986;-67
2023/01/09 18:41:35;;;;;;;;;;;;;;;;;;5039032;28;6991;-66
2023/01/09 18:44:03;;;;;;;;;;;;;;;;;;5037941;28;7387;-67
2023/01/09 18:46:31;;;;;;;;;;;;;;;;;;5018400;28;7180;-66
2023/01/09 18:48:59;;;;;;;;;;;;;;;;;;5018202;28;7370;-66
2023/01/09 18:51:25;;;;;;;;;;;;;;;;;;5018358;28;7131;-66
2023/01/09 18:54:25;;;;;;;;;;;;;;;;;;5018422;28;6944;-66
2023/01/09 18:56:50;;;;;;;;;;;;;;;;;;5018263;28;7243;-67
2023/01/09 18:59:16;;;;;;;;;;;;;;;;;;5018204;28;7567;-66
2023/01/09 19:07:46;;;;;;;;;;;;;;;;;;4998207;28;6688;-66
2023/01/09 19:10:12;;;;;;;;;;;;;;;;;;4998396;28;7414;-66
2023/01/09 19:12:38;;;;;;;;;;;;;;;;;;4999482;28;7217;-67
2023/01/09 19:15:27;;;;;;;;;;;;;;;;;;5013768;28;7188;-67
2023/01/09 19:17:53;;;;;;;;;;;;;;;;;;4998891;28;7162;-66
2023/01/09 19:20:18;;;;;;;;;;;;;;;;;;4998167;28;7354;-66
2023/01/09 19:22:44;;;;;;;;;;;;;;;;;;4997180;28;7398;-67
2023/01/09 19:28:13;;;;;;;;;;;;;;;;;;4998058;28;6971;-66
2023/01/09 19:30:39;;;;;;;;;;;;;;;;;;4997968;28;7367;-66
2023/01/09 19:39:10;;;;;;;;;;;;;;;;;;4997633;28;6682;-66
2023/01/09 19:41:35;;;;;;;;;;;;;;;;;;4997411;28;7247;-67
2023/01/09 19:44:02;;;;;;;;;;;;;;;;;;4997874;28;7311;-66
2023/01/09 19:46:36;;;;;;;;;;;;;;;;;;5017162;28;6962;-67
2023/01/09 19:49:05;;;;;;;;;;;;;;;;;;5017250;28;7093;-67
2023/01/09 19:51:32;;;;;;;;;;;;;;;;;;5017027;28;7179;-67
2023/01/09 19:53:59;;;;;;;;;;;;;;;;;;5017080;28;7172;-66
2023/01/09 19:56:30;;;;;;;;;;;;;;;;;;5017138;28;7159;-66
2023/01/09 20:01:58;;;;;;;;;;;;;;;;;;5017406;28;7045;-66
2023/01/09 20:07:27;;;;;;;;;;;;;;;;;;5036507;28;6904;-67
2023/01/09 20:12:55;;;;;;;;;;;;;;;;;;5036235;28;6687;-66
2023/01/09 20:15:36;;;;;;;;;;;;;;;;;;5037793;28;7187;-67
2023/01/09 20:21:36;;;;;;;;;;;;;;;;;;5036183;28;6991;-66
2023/01/09 20:24:06;;;;;;;;;;;;;;;;;;5037106;28;7169;-66
2023/01/09 20:26:35;;;;;;;;;;;;;;;;;;5036340;28;7242;-67
2023/01/09 20:29:27;;;;;;;;;;;;;;;;;;5036385;28;7516;-67
2023/01/09 20:31:53;;;;;;;;;;;;;;;;;;5036236;28;7193;-66
2023/01/09 20:34:28;;;;;;;;;;;;;;;;;;5035244;28;7580;-67
2023/01/09 20:36:53;;;;;;;;;;;;;;;;;;5036094;28;7133;-66
2023/01/09 20:42:21;;;;;;;;;;;;;;;;;;5035679;28;6684;-66
2023/01/09 20:45:07;;;;;;;;;;;;;;;;;;5027629;28;7166;-66
2023/01/09 20:47:33;;;;;;;;;;;;;;;;;;5016816;28;7233;-66
2023/01/09 20:50:32;;;;;;;;;;;;;;;;;;5016576;28;7109;-66
2023/01/09 20:52:57;;;;;;;;;;;;;;;;;;5015986;28;7201;-66
2023/01/09 20:55:23;;;;;;;;;;;;;;;;;;4998462;28;8516;-66
2023/01/09 20:57:48;;;;;;;;;;;;;;;;;;5015645;28;7277;-67
2023/01/09 21:03:23;;;;;;;;;;;;;;;;;;4996156;28;6727;-66
2023/01/09 21:06:13;;;;;;;;;;;;;;;;;;4996259;28;7055;-67
2023/01/09 21:08:43;;;;;;;;;;;;;;;;;;4996032;28;7079;-66
2023/01/09 21:11:10;;;;;;;;;;;;;;;;;;4996058;28;7590;-66
2023/01/09 21:13:36;;;;;;;;;;;;;;;;;;4995977;28;7106;-67
2023/01/09 21:16:06;;;;;;;;;;;;;;;;;;4996634;28;7647;-67
2023/01/09 21:18:43;;;;;;;;;;;;;;;;;;4996042;28;7366;-66
2023/01/09 21:21:13;;;;;;;;;;;;;;;;;;4996189;28;6932;-66
2023/01/09 21:23:43;;;;;;;;;;;;;;;;;;5000010;28;6922;-66
2023/01/09 21:26:21;;;;;;;;;;;;;;;;;;5015330;28;7409;-66
2023/01/09 21:28:48;;;;;;;;;;;;;;;;;;5015105;28;7352;-66
2023/01/09 21:31:33;;;;;;;;;;;;;;;;;;5033929;28;7219;-66
2023/01/09 21:34:02;;;;;;;;;;;;;;;;;;4995552;28;7132;-67
2023/01/09 21:36:28;;;;;;;;;;;;;;;;;;5013082;28;7068;-66
2023/01/09 21:38:56;;;;;;;;;;;;;;;;;;5012240;28;7143;-67
2023/01/09 21:46:59;;;;;;;;;;;;;;;;;;5014495;28;6804;-66
2023/01/09 21:49:28;;;;;;;;;;;;;;;;;;4996717;28;8753;-67
2023/01/09 21:51:59;;;;;;;;;;;;;;;;;;5014403;28;6940;-66
2023/01/09 21:54:25;;;;;;;;;;;;;;;;;;5014319;28;7206;-66
2023/01/09 21:57:06;;;;;;;;;;;;;;;;;;5022591;28;7167;-67
2023/01/09 21:59:32;;;;;;;;;;;;;;;;;;5015044;28;7066;-67
2023/01/09 22:01:58;;;;;;;;;;;;;;;;;;5023697;28;7118;-66
2023/01/09 22:07:26;;;;;;;;;;;;;;;;;;5029276;28;6741;-67
2023/01/09 22:09:51;;;;;;;;;;;;;;;;;;5023819;28;7316;-67
2023/01/09 22:12:17;;;;;;;;;;;;;;;;;;5027052;28;7137;-66
2023/01/09 22:14:49;;;;;;;;;;;;;;;;;;4995474;28;6936;-67
2023/01/09 22:17:15;;;;;;;;;;;;;;;;;;5013013;28;7171;-66
2023/01/09 22:19:40;;;;;;;;;;;;;;;;;;4989937;28;8604;-66
2023/01/09 22:22:17;;;;;;;;;;;;;;;;;;5001486;28;7541;-66
2023/01/09 22:24:43;;;;;;;;;;;;;;;;;;5000822;28;7187;-67
2023/01/09 22:27:08;;;;;;;;;;;;;;;;;;5014616;28;7337;-66
2023/01/09 22:32:36;;;;;;;;;;;;;;;;;;5004072;28;6902;-66
2023/01/09 22:35:35;;;;;;;;;;;;;;;;;;5034443;28;7133;-66
2023/01/09 22:38:00;;;;;;;;;;;;;;;;;;5035007;28;7086;-66
2023/01/09 22:40:26;;;;;;;;;;;;;;;;;;5034523;28;7194;-66
2023/01/09 22:42:53;;;;;;;;;;;;;;;;;;5034276;28;6911;-66
2023/01/09 22:45:40;;;;;;;;;;;;;;;;;;5034360;28;7179;-66
2023/01/09 22:48:06;;;;;;;;;;;;;;;;;;5003658;28;7309;-66
2023/01/09 22:50:43;;;;;;;;;;;;;;;;;;5002426;28;7022;-67
2023/01/09 22:53:08;;;;;;;;;;;;;;;;;;5004510;28;7250;-66
2023/01/09 22:55:37;;;;;;;;;;;;;;;;;;5006435;28;7364;-66
2023/01/09 22:58:02;;;;;;;;;;;;;;;;;;5036386;28;7229;-66
2023/01/09 23:00:48;;;;;;;;;;;;;;;;;;4998360;28;7350;-67
2023/01/09 23:03:26;;;;;;;;;;;;;;;;;;5034211;28;7114;-66
2023/01/09 23:06:03;;;;;;;;;;;;;;;;;;5017807;28;7002;-66
2023/01/09 23:08:29;;;;;;;;;;;;;;;;;;5019014;28;7176;-66
2023/01/09 23:10:55;;;;;;;;;;;;;;;;;;5017463;28;7344;-66
2023/01/09 23:13:26;;;;;;;;;;;;;;;;;;5031049;28;7196;-67
2023/01/09 23:15:53;;;;;;;;;;;;;;;;;;5037547;28;6946;-66
2023/01/09 23:18:32;;;;;;;;;;;;;;;;;;5037607;28;7135;-66
2023/01/09 23:21:00;;;;;;;;;;;;;;;;;;5037329;28;7165;-66
2023/01/09 23:23:28;;;;;;;;;;;;;;;;;;5037450;28;7427;-66
2023/01/09 23:25:55;;;;;;;;;;;;;;;;;;5037651;28;7195;-66
2023/01/09 23:28:21;;;;;;;;;;;;;;;;;;5037374;28;7369;-66
2023/01/09 23:31:00;;;;;;;;;;;;;;;;;;5038015;28;7387;-66
2023/01/09 23:33:25;;;;;;;;;;;;;;;;;;5019985;28;7182;-66
2023/01/09 23:35:51;;;;;;;;;;;;;;;;;;5037394;28;7400;-66
2023/01/09 23:38:16;;;;;;;;;;;;;;;;;;5037319;28;7124;-66
2023/01/09 23:40:46;;;;;;;;;;;;;;;;;;5037186;28;7438;-66